createdAt,value
2019-05-22T03:46:35.055Z,82.20
2019-05-22T03:49:05.899Z,82.20
2019-05-22T03:51:35.138Z,81.50
2019-05-22T03:54:05.405Z,81.80
2019-05-22T03:56:37.219Z,81.80
2019-05-22T03:59:06.373Z,82.10
2019-05-22T04:01:36.216Z,81.20
2019-05-22T04:04:07.293Z,80.70
2019-05-22T04:06:36.914Z,80.30
2019-05-22T04:09:16.996Z,79.10
2019-05-22T04:11:46.706Z,77.80
2019-05-22T04:14:16.340Z,76.20
2019-05-22T04:16:44.781Z,76.50
2019-05-22T04:19:13.510Z,75.30
2019-05-22T04:21:44.047Z,75.30
2019-05-22T04:24:12.846Z,74.70
2019-05-22T04:26:42.395Z,75.00
2019-05-22T04:29:11.646Z,75.40
2019-05-22T04:31:50.575Z,75.90
2019-05-22T04:34:20.784Z,76.90
2019-05-22T04:36:54.049Z,78.80
2019-05-22T04:39:25.765Z,79.20
2019-05-22T04:41:56.440Z,79.50
2019-05-22T04:44:26.288Z,79.20
2019-05-22T04:46:55.616Z,79.40
2019-05-22T04:49:25.416Z,79.60
2019-05-22T04:51:54.732Z,79.00
2019-05-22T04:54:23.600Z,78.90
2019-05-22T04:56:53.525Z,78.40
2019-05-22T04:59:22.016Z,78.50
2019-05-22T05:01:50.889Z,78.90
2019-05-22T05:04:19.663Z,79.30
2019-05-22T05:06:49.730Z,79.90
2019-05-22T05:09:18.937Z,80.10
2019-05-22T05:11:47.422Z,79.70
2019-05-22T05:14:15.969Z,79.20
2019-05-22T05:16:44.690Z,80.00
2019-05-22T05:19:13.256Z,79.50
2019-05-22T05:21:41.950Z,79.10
2019-05-22T05:24:10.451Z,79.30
2019-05-22T05:26:40.206Z,80.00
2019-05-22T05:29:12.327Z,79.40
2019-05-22T05:31:42.318Z,79.20
2019-05-22T05:34:28.852Z,79.10
2019-05-22T05:36:58.994Z,78.90
2019-05-22T05:39:37.720Z,79.20
2019-05-22T05:42:06.507Z,78.80
2019-05-22T05:44:36.053Z,78.50
2019-05-22T05:47:06.175Z,78.30
2019-05-22T05:49:35.051Z,78.00
2019-05-22T05:52:03.815Z,77.00
2019-05-22T05:54:32.743Z,76.50
2019-05-22T05:57:27.275Z,76.20
2019-05-22T05:59:57.179Z,76.20
2019-05-22T06:02:26.465Z,74.10
2019-05-22T06:04:54.913Z,71.90
2019-05-22T06:07:24.655Z,70.10
2019-05-22T06:09:58.991Z,68.10
2019-05-22T06:12:27.508Z,68.60
2019-05-22T06:14:56.849Z,68.10
2019-05-22T06:17:38.764Z,67.60
2019-05-22T06:20:09.917Z,68.40
2019-05-22T06:22:38.444Z,68.10
2019-05-22T06:25:08.345Z,68.20
2019-05-22T06:27:44.310Z,67.20
2019-05-22T06:30:17.479Z,66.40
2019-05-22T06:33:08.612Z,69.10
2019-05-22T06:35:38.560Z,67.80
2019-05-22T06:38:22.043Z,67.10
2019-05-22T06:40:51.333Z,66.70
2019-05-22T06:43:24.682Z,67.80
2019-05-22T06:45:55.183Z,67.80
2019-05-22T06:48:24.107Z,68.40
2019-05-22T06:50:52.848Z,66.80
2019-05-22T06:53:21.604Z,66.30
2019-05-22T06:55:50.799Z,66.20
2019-05-22T06:58:19.637Z,67.60
2019-05-22T07:00:49.021Z,67.10
2019-05-22T07:03:17.772Z,65.10
2019-05-22T07:05:46.601Z,65.70
2019-05-22T07:08:15.808Z,66.30
2019-05-22T07:10:44.800Z,65.50
2019-05-22T07:13:14.171Z,66.40
2019-05-22T07:15:44.123Z,64.20
2019-05-22T07:18:14.768Z,66.80
2019-05-22T07:20:44.668Z,64.40
2019-05-22T07:23:15.028Z,66.30
2019-05-22T07:25:46.593Z,63.40
2019-05-22T07:28:18.170Z,62.40
2019-05-22T07:30:48.157Z,63.00
2019-05-22T07:33:18.000Z,61.90
2019-05-22T07:36:07.603Z,62.20
2019-05-22T07:38:19.383Z,63.20
2019-05-22T07:40:50.377Z,60.80
2019-05-22T07:43:20.848Z,61.20
2019-05-22T07:45:51.612Z,61.40
2019-05-22T07:48:21.222Z,63.10
2019-05-22T07:50:52.004Z,63.10
2019-05-22T07:53:20.803Z,61.60
2019-05-22T07:55:50.873Z,61.70
2019-05-22T07:58:19.376Z,62.60
2019-05-22T08:00:54.278Z,61.60
2019-05-22T08:03:23.945Z,62.30
2019-05-22T08:05:56.203Z,60.30
2019-05-22T08:08:26.636Z,59.80
2019-05-22T08:10:57.443Z,62.10
2019-05-22T08:13:27.589Z,61.20
2019-05-22T08:15:56.577Z,63.10
2019-05-22T08:18:27.007Z,60.40
2019-05-22T08:20:55.830Z,59.50
2019-05-22T08:23:26.536Z,58.60
2019-05-22T08:25:57.794Z,59.10
2019-05-22T08:28:26.729Z,57.80
2019-05-22T08:30:55.721Z,56.90
2019-05-22T08:33:24.411Z,58.80
2019-05-22T08:35:53.649Z,57.00
2019-05-22T08:38:26.979Z,55.80
2019-05-22T08:40:55.579Z,54.90
2019-05-22T08:43:24.458Z,54.80
2019-05-22T08:45:53.205Z,53.60
2019-05-22T08:48:22.409Z,54.60
2019-05-22T08:50:52.911Z,54.20
2019-05-22T08:53:21.585Z,54.20
2019-05-22T08:55:50.427Z,53.40
2019-05-22T08:58:19.034Z,53.90
2019-05-22T09:00:48.558Z,53.40
2019-05-22T09:03:17.440Z,53.00
2019-05-22T09:05:46.005Z,52.60
2019-05-22T09:08:14.885Z,51.50
2019-05-22T09:10:43.447Z,51.10
2019-05-22T09:13:12.264Z,50.50
2019-05-22T09:15:42.291Z,50.20
2019-05-22T09:18:11.336Z,50.60
2019-05-22T09:20:49.211Z,48.60
2019-05-22T09:23:11.590Z,47.50
2019-05-22T09:25:40.008Z,46.00
2019-05-22T09:28:08.941Z,48.30
2019-05-22T09:30:37.899Z,44.70
2019-05-22T09:33:08.605Z,43.00
2019-05-22T09:35:37.198Z,44.80
2019-05-22T09:38:05.919Z,44.60
2019-05-22T09:40:34.803Z,44.20
2019-05-22T09:43:05.103Z,45.70
2019-05-22T09:45:35.634Z,45.30
2019-05-22T09:48:05.585Z,45.10
2019-05-22T09:50:34.219Z,43.40
2019-05-22T09:53:04.864Z,43.40
2019-05-22T09:55:33.552Z,44.30
2019-05-22T09:58:01.997Z,43.20
2019-05-22T10:00:31.047Z,44.50
2019-05-22T10:02:59.719Z,46.80
2019-05-22T10:05:29.014Z,45.90
2019-05-22T10:08:01.759Z,46.20
2019-05-22T10:10:31.156Z,46.80
2019-05-22T10:13:00.027Z,45.30
2019-05-22T10:15:29.742Z,45.70
2019-05-22T10:17:59.206Z,44.10
2019-05-22T10:20:28.276Z,41.70
2019-05-22T10:23:12.507Z,42.40
2019-05-22T10:25:27.691Z,41.60
2019-05-22T10:27:59.187Z,43.80
2019-05-22T10:30:27.034Z,43.50
2019-05-22T10:32:55.727Z,43.10
2019-05-22T10:35:25.320Z,44.30
2019-05-22T10:37:54.844Z,45.10
2019-05-22T10:40:24.177Z,47.60
2019-05-22T10:42:53.340Z,45.80
2019-05-22T10:45:22.220Z,44.20
2019-05-22T10:47:51.477Z,43.00
2019-05-22T10:50:20.420Z,43.50
2019-05-22T10:52:54.105Z,45.90
2019-05-22T10:55:21.265Z,45.00
2019-05-22T10:57:51.863Z,43.90
2019-05-22T11:00:21.924Z,43.80
2019-05-22T11:02:50.706Z,43.10
2019-05-22T11:05:20.779Z,43.10
2019-05-22T11:07:50.995Z,42.00
2019-05-22T11:10:22.403Z,42.70
2019-05-22T11:12:51.809Z,43.40
2019-05-22T11:15:22.152Z,45.10
2019-05-22T11:17:52.093Z,44.80
2019-05-22T11:20:21.227Z,47.20
2019-05-22T11:22:50.252Z,45.70
2019-05-22T11:25:19.356Z,47.20
2019-05-22T11:27:48.239Z,46.80
2019-05-22T11:30:17.461Z,44.90
2019-05-22T11:32:46.193Z,46.00
2019-05-22T11:35:15.636Z,45.40
2019-05-22T11:37:46.905Z,47.20
2019-05-22T11:40:16.176Z,44.50
2019-05-22T11:42:44.776Z,45.10
2019-05-22T11:45:14.618Z,46.30
2019-05-22T11:47:43.295Z,45.30
2019-05-22T11:50:14.799Z,48.00
2019-05-22T11:52:43.296Z,45.50
2019-05-22T11:55:13.436Z,46.10
2019-05-22T11:57:47.988Z,45.30
2019-05-22T12:00:18.502Z,44.90
2019-05-22T12:02:47.895Z,46.60
2019-05-22T12:05:18.723Z,45.70
2019-05-22T12:07:48.810Z,46.90
2019-05-22T12:10:19.561Z,44.60
2019-05-22T12:12:49.322Z,45.50
2019-05-22T12:15:21.433Z,46.60
2019-05-22T12:17:50.487Z,46.60
2019-05-22T12:20:20.965Z,45.70
2019-05-22T12:22:49.522Z,47.30
2019-05-22T12:25:19.613Z,46.50
2019-05-22T12:27:48.477Z,47.90
2019-05-22T12:30:19.029Z,47.40
2019-05-22T12:32:48.327Z,47.80
2019-05-22T12:35:17.652Z,46.60
2019-05-22T12:37:46.181Z,47.00
2019-05-22T12:40:19.016Z,45.40
2019-05-22T12:42:48.754Z,43.80
2019-05-22T12:45:19.601Z,43.60
2019-05-22T12:47:48.067Z,44.30
2019-05-22T12:50:19.879Z,42.30
2019-05-22T12:52:49.024Z,42.60
2019-05-22T12:55:20.451Z,44.10
2019-05-22T12:57:49.967Z,41.90
2019-05-22T13:00:22.427Z,43.00
2019-05-22T13:02:52.204Z,42.90
2019-05-22T13:05:20.833Z,41.80
2019-05-22T13:07:49.550Z,41.10
2019-05-22T13:10:19.684Z,41.20
2019-05-22T13:12:49.154Z,41.30
2019-05-22T13:15:18.822Z,42.80
2019-05-22T13:17:49.215Z,44.90
2019-05-22T13:20:21.419Z,42.10
2019-05-22T13:22:53.429Z,41.10
2019-05-22T13:25:24.571Z,40.30
2019-05-22T13:27:53.409Z,41.00
2019-05-22T13:30:28.178Z,40.50
2019-05-22T13:32:56.235Z,41.20
2019-05-22T13:35:26.699Z,41.70
2019-05-22T13:37:58.058Z,41.80
2019-05-22T13:40:28.440Z,41.20
2019-05-22T13:42:58.980Z,41.00
2019-05-22T13:45:30.199Z,40.30
2019-05-22T13:47:58.979Z,40.90
2019-05-22T13:50:29.401Z,41.20
2019-05-22T13:53:00.826Z,41.10
2019-05-22T13:55:30.180Z,40.70
2019-05-22T13:57:59.762Z,39.70
2019-05-22T14:00:29.853Z,39.20
2019-05-22T14:02:59.617Z,39.10
2019-05-22T14:05:29.506Z,39.90
2019-05-22T14:07:58.564Z,39.70
2019-05-22T14:10:30.383Z,39.60
2019-05-22T14:12:59.452Z,40.40
2019-05-22T14:15:47.382Z,39.90
2019-05-22T14:17:59.830Z,39.90
2019-05-22T14:20:28.674Z,38.60
2019-05-22T14:22:57.089Z,38.80
2019-05-22T14:25:26.507Z,40.50
2019-05-22T14:27:55.291Z,40.60
2019-05-22T14:30:25.639Z,40.10
2019-05-22T14:32:54.815Z,39.90
2019-05-22T14:35:25.674Z,40.50
2019-05-22T14:37:54.641Z,38.90
2019-05-22T14:40:23.376Z,37.90
2019-05-22T14:42:52.007Z,37.90
2019-05-22T14:45:21.849Z,36.90
2019-05-22T14:47:50.492Z,37.80
2019-05-22T14:50:19.556Z,36.30
2019-05-22T14:52:48.455Z,36.90
2019-05-22T14:55:17.237Z,37.20
2019-05-22T14:57:45.670Z,37.00
2019-05-22T15:00:17.695Z,36.80
2019-05-22T15:02:52.778Z,37.70
2019-05-22T15:05:17.542Z,37.30
2019-05-22T15:07:46.080Z,38.60
2019-05-22T15:10:17.007Z,38.60
2019-05-22T15:12:46.148Z,37.90
2019-05-22T15:15:15.398Z,38.20
2019-05-22T15:17:44.158Z,38.30
2019-05-22T15:20:15.655Z,38.90
2019-05-22T15:22:49.000Z,39.30
2019-05-22T15:25:17.598Z,40.70
2019-05-22T15:27:46.187Z,40.40
2019-05-22T15:30:14.765Z,39.60
2019-05-22T15:32:43.796Z,40.80
2019-05-22T15:35:13.455Z,41.90
2019-05-22T15:37:43.503Z,41.30
2019-05-22T15:40:12.655Z,41.40
2019-05-22T15:42:43.905Z,40.90
2019-05-22T15:45:21.937Z,39.50
2019-05-22T15:47:56.383Z,39.90
2019-05-22T15:50:29.000Z,40.20
2019-05-22T15:53:06.253Z,40.30
2019-05-22T15:55:35.331Z,40.10
2019-05-22T15:58:05.350Z,39.30
2019-05-22T16:00:36.667Z,39.80
2019-05-22T16:03:15.205Z,39.10
2019-05-22T16:05:45.168Z,39.30
2019-05-22T16:08:14.945Z,40.10
2019-05-22T16:10:46.561Z,40.30
2019-05-22T16:13:17.241Z,40.10
2019-05-22T16:15:49.125Z,40.80
2019-05-22T16:18:23.307Z,41.00
2019-05-22T16:20:53.724Z,40.70
2019-05-22T16:23:23.120Z,41.70
2019-05-22T16:25:52.879Z,41.00
2019-05-22T16:28:22.646Z,40.30
2019-05-22T16:30:54.814Z,39.70
2019-05-22T16:33:25.011Z,40.30
2019-05-22T16:35:54.486Z,39.60
2019-05-22T16:38:25.647Z,39.30
2019-05-22T16:40:54.963Z,40.10
2019-05-22T16:43:24.162Z,39.70
2019-05-22T16:45:53.709Z,39.30
2019-05-22T16:48:29.046Z,39.70
2019-05-22T16:50:53.579Z,38.90
2019-05-22T16:53:24.714Z,39.10
2019-05-22T16:55:54.223Z,39.30
2019-05-22T16:58:23.152Z,39.90
2019-05-22T17:00:55.992Z,39.70
2019-05-22T17:03:24.169Z,39.90
2019-05-22T17:05:53.224Z,40.40
2019-05-22T17:08:23.184Z,40.80
2019-05-22T17:10:52.184Z,41.10
2019-05-22T17:13:21.291Z,40.40
2019-05-22T17:15:50.033Z,40.20
2019-05-22T17:18:20.044Z,39.90
2019-05-22T17:20:49.729Z,40.90
2019-05-22T17:23:18.380Z,41.30
2019-05-22T17:25:48.993Z,40.50
2019-05-22T17:28:18.038Z,40.10
2019-05-22T17:30:46.880Z,40.00
2019-05-22T17:33:15.760Z,40.60
2019-05-22T17:35:44.548Z,40.20
2019-05-22T17:38:14.793Z,41.20
2019-05-22T17:40:43.615Z,40.80
2019-05-22T17:43:13.168Z,40.90
2019-05-22T17:45:43.807Z,41.30
2019-05-22T17:48:15.122Z,41.40
2019-05-22T17:50:44.391Z,41.40
2019-05-22T17:53:13.968Z,41.30
2019-05-22T17:55:42.966Z,41.70
2019-05-22T17:58:12.683Z,41.70
2019-05-22T18:00:46.463Z,42.00
2019-05-22T18:03:15.483Z,41.60
2019-05-22T18:05:44.248Z,41.20
2019-05-22T18:08:13.367Z,40.80
2019-05-22T18:10:42.886Z,40.90
2019-05-22T18:13:12.785Z,40.40
2019-05-22T18:15:41.737Z,41.00
2019-05-22T18:18:11.178Z,41.70
2019-05-22T18:20:43.664Z,41.10
2019-05-22T18:23:10.760Z,41.10
2019-05-22T18:25:39.823Z,40.90
2019-05-22T18:28:10.349Z,41.60
2019-05-22T18:30:41.014Z,40.50
2019-05-22T18:33:09.792Z,40.20
2019-05-22T18:35:38.589Z,40.20
2019-05-22T18:38:07.229Z,40.00
2019-05-22T18:40:36.261Z,39.80
2019-05-22T18:43:05.042Z,40.60
2019-05-22T18:45:35.184Z,40.60
2019-05-22T18:48:04.435Z,40.30
2019-05-22T18:50:33.582Z,41.30
2019-05-22T18:53:02.392Z,39.90
2019-05-22T18:55:30.817Z,39.60
2019-05-22T18:57:59.453Z,40.80
2019-05-22T19:00:30.216Z,41.20
2019-05-22T19:02:58.922Z,40.50
2019-05-22T19:05:30.554Z,41.00
2019-05-22T19:07:59.311Z,40.80
2019-05-22T19:10:28.873Z,42.50
2019-05-22T19:12:58.940Z,42.30
2019-05-22T19:15:28.159Z,43.20
2019-05-22T19:17:57.077Z,43.00
2019-05-22T19:20:25.922Z,43.20
2019-05-22T19:23:00.197Z,41.90
2019-05-22T19:25:24.806Z,41.40
2019-05-22T19:27:53.339Z,42.70
2019-05-22T19:30:22.411Z,42.00
2019-05-22T19:32:51.766Z,41.40
2019-05-22T19:35:20.559Z,42.00
2019-05-22T19:37:50.177Z,43.20
2019-05-22T19:40:19.551Z,42.90
2019-05-22T19:42:48.231Z,43.60
2019-05-22T19:45:17.840Z,43.90
2019-05-22T19:47:52.058Z,44.00
2019-05-22T19:50:23.873Z,45.00
2019-05-22T19:52:53.235Z,44.70
2019-05-22T19:55:23.307Z,45.50
2019-05-22T19:57:52.088Z,45.10
2019-05-22T20:00:22.273Z,46.70
2019-05-22T20:02:51.176Z,47.00
2019-05-22T20:05:22.708Z,45.70
2019-05-22T20:07:52.126Z,46.00
2019-05-22T20:10:21.740Z,46.40
2019-05-22T20:12:50.631Z,47.10
2019-05-22T20:15:20.400Z,47.60
2019-05-22T20:17:50.917Z,47.50
2019-05-22T20:20:20.866Z,49.90
2019-05-22T20:22:49.768Z,50.50
2019-05-22T20:25:21.043Z,53.00
2019-05-22T20:27:49.901Z,52.00
2019-05-22T20:30:20.707Z,52.60
2019-05-22T20:32:49.369Z,51.00
2019-05-22T20:35:18.742Z,50.40
2019-05-22T20:37:48.195Z,50.40
2019-05-22T20:40:20.143Z,50.00
2019-05-22T20:42:49.113Z,51.10
2019-05-22T20:45:19.201Z,50.60
2019-05-22T20:47:49.396Z,50.70
2019-05-22T20:50:19.967Z,51.00
2019-05-22T20:52:49.668Z,51.80
2019-05-22T20:55:20.129Z,51.40
2019-05-22T20:57:49.484Z,51.30
2019-05-22T21:00:19.928Z,51.00
2019-05-22T21:02:50.724Z,51.50
2019-05-22T21:05:21.354Z,51.40
2019-05-22T21:07:52.489Z,51.10
2019-05-22T21:10:24.506Z,51.30
2019-05-22T21:12:54.835Z,50.60
2019-05-22T21:15:23.510Z,51.20
2019-05-22T21:17:52.619Z,51.80
2019-05-22T21:20:22.863Z,51.20
2019-05-22T21:22:51.938Z,51.00
2019-05-22T21:25:20.717Z,51.00
2019-05-22T21:27:49.404Z,51.20
2019-05-22T21:30:19.040Z,51.50
2019-05-22T21:32:47.653Z,51.40
2019-05-22T21:35:18.010Z,51.90
2019-05-22T21:37:46.691Z,52.40
2019-05-22T21:40:17.947Z,52.40
2019-05-22T21:42:47.368Z,52.40
2019-05-22T21:45:17.101Z,52.60
2019-05-22T21:47:45.969Z,52.70
2019-05-22T21:50:16.004Z,52.90
2019-05-22T21:52:44.704Z,53.30
2019-05-22T21:55:13.795Z,53.20
2019-05-22T21:57:44.475Z,53.30
2019-05-22T22:00:17.615Z,53.00
2019-05-22T22:02:48.975Z,53.40
2019-05-22T22:05:19.329Z,53.80
2019-05-22T22:07:48.077Z,53.80
2019-05-22T22:10:17.024Z,54.60
2019-05-22T22:12:47.772Z,55.30
2019-05-22T22:15:17.590Z,54.80
2019-05-22T22:17:47.267Z,54.00
2019-05-22T22:20:17.505Z,54.20
2019-05-22T22:22:45.946Z,53.90
2019-05-22T22:25:16.284Z,54.50
2019-05-22T22:27:45.047Z,55.60
2019-05-22T22:30:18.981Z,55.40
2019-05-22T22:32:49.355Z,55.10
2019-05-22T22:35:19.807Z,55.70
2019-05-22T22:37:48.893Z,55.90
2019-05-22T22:40:22.073Z,56.30
2019-05-22T22:42:52.172Z,56.70
2019-05-22T22:45:29.392Z,56.40
2019-05-22T22:47:58.428Z,56.80
2019-05-22T22:50:26.889Z,56.70
2019-05-22T22:52:55.389Z,57.20
2019-05-22T22:55:26.734Z,57.40
2019-05-22T22:57:55.717Z,57.90
